sensor_id;sensor_type;location;lat;lon;timestamp;P1;durP1;ratioP1;P2;durP2;ratioP2
66183;SDS011;52989;48.796;9.806;2022-09-09T00:00:45;11.27;;;6.18;;
66183;SDS011;52989;48.796;9.806;2022-09-09T00:03:15;10.55;;;6.30;;
66183;SDS011;52989;48.796;9.806;2022-09-09T00:08:41;9.02;;;4.90;;
66183;SDS011;52989;48.796;9.806;2022-09-09T00:11:36;10.95;;;4.88;;
66183;SDS011;52989;48.796;9.806;2022-09-09T00:14:20;9.32;;;5.28;;
66183;SDS011;52989;48.796;9.806;2022-09-09T00:17:04;13.80;;;6.75;;
66183;SDS011;52989;48.796;9.806;2022-09-09T00:19:49;14.48;;;6.72;;
66183;SDS011;52989;48.796;9.806;2022-09-09T00:22:22;10.63;;;5.67;;
66183;SDS011;52989;48.796;9.806;2022-09-09T00:24:52;10.48;;;6.10;;
66183;SDS011;52989;48.796;9.806;2022-09-09T00:27:30;12.00;;;5.78;;
66183;SDS011;52989;48.796;9.806;2022-09-09T00:32:45;5.82;;;4.30;;
66183;SDS011;52989;48.796;9.806;2022-09-09T00:37:46;8.10;;;5.10;;
66183;SDS011;52989;48.796;9.806;2022-09-09T00:40:35;7.50;;;3.63;;
66183;SDS011;52989;48.796;9.806;2022-09-09T00:43:25;5.50;;;2.83;;
66183;SDS011;52989;48.796;9.806;2022-09-09T00:46:05;6.10;;;3.55;;
66183;SDS011;52989;48.796;9.806;2022-09-09T00:59:56;9.65;;;4.40;;
66183;SDS011;52989;48.796;9.806;2022-09-09T01:05:15;6.82;;;4.07;;
66183;SDS011;52989;48.796;9.806;2022-09-09T01:07:48;7.20;;;3.72;;
66183;SDS011;52989;48.796;9.806;2022-09-09T01:10:21;9.15;;;4.68;;
66183;SDS011;52989;48.796;9.806;2022-09-09T01:12:55;8.30;;;4.68;;
66183;SDS011;52989;48.796;9.806;2022-09-09T01:15:27;7.25;;;3.67;;
66183;SDS011;52989;48.796;9.806;2022-09-09T01:18:05;9.00;;;3.55;;
66183;SDS011;52989;48.796;9.806;2022-09-09T01:20:39;7.32;;;3.40;;
66183;SDS011;52989;48.796;9.806;2022-09-09T01:23:31;8.15;;;3.22;;
66183;SDS011;52989;48.796;9.806;2022-09-09T01:28:39;6.68;;;3.33;;
66183;SDS011;52989;48.796;9.806;2022-09-09T01:31:07;6.85;;;2.50;;
66183;SDS011;52989;48.796;9.806;2022-09-09T01:33:36;6.63;;;2.95;;
66183;SDS011;52989;48.796;9.806;2022-09-09T01:39:04;6.35;;;2.80;;
66183;SDS011;52989;48.796;9.806;2022-09-09T01:41:30;6.28;;;2.97;;
66183;SDS011;52989;48.796;9.806;2022-09-09T01:43:56;3.65;;;2.72;;
66183;SDS011;52989;48.796;9.806;2022-09-09T01:46:22;6.68;;;2.83;;
66183;SDS011;52989;48.796;9.806;2022-09-09T01:48:50;9.15;;;2.38;;
66183;SDS011;52989;48.796;9.806;2022-09-09T01:51:17;5.50;;;2.72;;
66183;SDS011;52989;48.796;9.806;2022-09-09T01:53:43;6.57;;;2.60;;
66183;SDS011;52989;48.796;9.806;2022-09-09T01:58:52;7.53;;;2.70;;
66183;SDS011;52989;48.796;9.806;2022-09-09T02:01:46;7.65;;;2.70;;
66183;SDS011;52989;48.796;9.806;2022-09-09T02:07:39;5.82;;;1.95;;
66183;SDS011;52989;48.796;9.806;2022-09-09T02:10:20;5.90;;;2.28;;
66183;SDS011;52989;48.796;9.806;2022-09-09T02:12:50;5.13;;;2.05;;
66183;SDS011;52989;48.796;9.806;2022-09-09T02:15:27;6.30;;;2.05;;
66183;SDS011;52989;48.796;9.806;2022-09-09T02:17:57;3.42;;;1.88;;
66183;SDS011;52989;48.796;9.806;2022-09-09T02:20:25;2.92;;;1.73;;
66183;SDS011;52989;48.796;9.806;2022-09-09T02:22:52;5.18;;;1.60;;
66183;SDS011;52989;48.796;9.806;2022-09-09T02:25:21;5.72;;;1.90;;
66183;SDS011;52989;48.796;9.806;2022-09-09T02:27:49;3.78;;;2.03;;
66183;SDS011;52989;48.796;9.806;2022-09-09T02:30:17;8.55;;;1.85;;
66183;SDS011;52989;48.796;9.806;2022-09-09T02:32:44;5.43;;;1.80;;
66183;SDS011;52989;48.796;9.806;2022-09-09T02:35:15;3.97;;;1.85;;
66183;SDS011;52989;48.796;9.806;2022-09-09T02:37:46;3.55;;;1.90;;
66183;SDS011;52989;48.796;9.806;2022-09-09T02:40:12;4.18;;;2.15;;
66183;SDS011;52989;48.796;9.806;2022-09-09T02:42:44;8.50;;;2.35;;
66183;SDS011;52989;48.796;9.806;2022-09-09T02:45:12;7.32;;;2.70;;
66183;SDS011;52989;48.796;9.806;2022-09-09T02:47:51;6.70;;;2.95;;
66183;SDS011;52989;48.796;9.806;2022-09-09T02:50:46;5.80;;;2.80;;
66183;SDS011;52989;48.796;9.806;2022-09-09T02:53:22;8.30;;;3.30;;
66183;SDS011;52989;48.796;9.806;2022-09-09T02:55:58;6.88;;;4.25;;
66183;SDS011;52989;48.796;9.806;2022-09-09T02:58:34;6.45;;;3.50;;
66183;SDS011;52989;48.796;9.806;2022-09-09T03:01:01;12.75;;;4.60;;
66183;SDS011;52989;48.796;9.806;2022-09-09T03:03:28;7.68;;;3.75;;
66183;SDS011;52989;48.796;9.806;2022-09-09T03:05:55;6.15;;;3.50;;
66183;SDS011;52989;48.796;9.806;2022-09-09T03:08:21;6.40;;;3.38;;
66183;SDS011;52989;48.796;9.806;2022-09-09T03:10:47;5.75;;;3.42;;
66183;SDS011;52989;48.796;9.806;2022-09-09T03:13:13;7.43;;;3.88;;
66183;SDS011;52989;48.796;9.806;2022-09-09T03:15:40;9.70;;;3.90;;
66183;SDS011;52989;48.796;9.806;2022-09-09T03:18:06;6.63;;;3.05;;
66183;SDS011;52989;48.796;9.806;2022-09-09T03:20:33;7.35;;;2.90;;
66183;SDS011;52989;48.796;9.806;2022-09-09T03:23:00;3.75;;;2.53;;
66183;SDS011;52989;48.796;9.806;2022-09-09T03:25:27;5.65;;;2.28;;
66183;SDS011;52989;48.796;9.806;2022-09-09T03:27:53;6.20;;;2.67;;
66183;SDS011;52989;48.796;9.806;2022-09-09T03:30:20;6.32;;;2.67;;
66183;SDS011;52989;48.796;9.806;2022-09-09T03:32:47;6.10;;;2.78;;
66183;SDS011;52989;48.796;9.806;2022-09-09T03:35:13;5.03;;;2.55;;
66183;SDS011;52989;48.796;9.806;2022-09-09T03:37:38;4.70;;;2.75;;
66183;SDS011;52989;48.796;9.806;2022-09-09T03:40:04;8.05;;;2.65;;
66183;SDS011;52989;48.796;9.806;2022-09-09T03:42:31;7.97;;;2.47;;
66183;SDS011;52989;48.796;9.806;2022-09-09T03:44:56;5.97;;;2.47;;
66183;SDS011;52989;48.796;9.806;2022-09-09T03:47:22;5.00;;;2.35;;
66183;SDS011;52989;48.796;9.806;2022-09-09T03:49:48;5.88;;;2.75;;
66183;SDS011;52989;48.796;9.806;2022-09-09T03:52:14;5.30;;;2.70;;
66183;SDS011;52989;48.796;9.806;2022-09-09T03:54:41;5.50;;;2.90;;
66183;SDS011;52989;48.796;9.806;2022-09-09T03:57:07;11.15;;;3.40;;
66183;SDS011;52989;48.796;9.806;2022-09-09T03:59:33;6.45;;;3.15;;
66183;SDS011;52989;48.796;9.806;2022-09-09T04:01:59;7.90;;;3.28;;
66183;SDS011;52989;48.796;9.806;2022-09-09T04:04:26;8.02;;;3.33;;
66183;SDS011;52989;48.796;9.806;2022-09-09T04:06:52;9.05;;;3.30;;
66183;SDS011;52989;48.796;9.806;2022-09-09T04:09:18;9.90;;;3.67;;
66183;SDS011;52989;48.796;9.806;2022-09-09T04:11:43;10.48;;;3.08;;
66183;SDS011;52989;48.796;9.806;2022-09-09T04:14:12;6.55;;;2.60;;
66183;SDS011;52989;48.796;9.806;2022-09-09T04:16:38;6.70;;;2.35;;
66183;SDS011;52989;48.796;9.806;2022-09-09T04:19:04;6.35;;;2.80;;
66183;SDS011;52989;48.796;9.806;2022-09-09T04:21:32;5.88;;;2.90;;
66183;SDS011;52989;48.796;9.806;2022-09-09T04:23:58;10.25;;;3.05;;
66183;SDS011;52989;48.796;9.806;2022-09-09T04:26:23;6.15;;;2.75;;
66183;SDS011;52989;48.796;9.806;2022-09-09T04:28:49;15.57;;;5.07;;
66183;SDS011;52989;48.796;9.806;2022-09-09T04:31:19;5.72;;;3.20;;
66183;SDS011;52989;48.796;9.806;2022-09-09T04:33:48;6.32;;;3.53;;
66183;SDS011;52989;48.796;9.806;2022-09-09T04:36:17;7.13;;;3.10;;
66183;SDS011;52989;48.796;9.806;2022-09-09T04:38:44;7.80;;;3.30;;
66183;SDS011;52989;48.796;9.806;2022-09-09T04:41:10;8.20;;;3.17;;
66183;SDS011;52989;48.796;9.806;2022-09-09T04:43:37;8.90;;;2.53;;
66183;SDS011;52989;48.796;9.806;2022-09-09T04:46:03;5.97;;;2.38;;
66183;SDS011;52989;48.796;9.806;2022-09-09T04:48:30;4.38;;;1.90;;
66183;SDS011;52989;48.796;9.806;2022-09-09T04:51:05;6.65;;;2.40;;
66183;SDS011;52989;48.796;9.806;2022-09-09T04:53:34;3.20;;;2.38;;
66183;SDS011;52989;48.796;9.806;2022-09-09T04:56:01;6.43;;;2.80;;
66183;SDS011;52989;48.796;9.806;2022-09-09T04:58:31;10.88;;;2.70;;
66183;SDS011;52989;48.796;9.806;2022-09-09T05:01:07;4.35;;;2.47;;
66183;SDS011;52989;48.796;9.806;2022-09-09T05:03:34;8.45;;;4.30;;
66183;SDS011;52989;48.796;9.806;2022-09-09T05:06:04;7.57;;;3.00;;
66183;SDS011;52989;48.796;9.806;2022-09-09T05:11:00;10.48;;;3.50;;
66183;SDS011;52989;48.796;9.806;2022-09-09T05:13:26;6.57;;;3.92;;
66183;SDS011;52989;48.796;9.806;2022-09-09T05:15:53;6.22;;;3.05;;
66183;SDS011;52989;48.796;9.806;2022-09-09T05:18:19;7.40;;;2.70;;
66183;SDS011;52989;48.796;9.806;2022-09-09T05:20:45;7.72;;;2.80;;
66183;SDS011;52989;48.796;9.806;2022-09-09T05:23:10;5.53;;;3.10;;
66183;SDS011;52989;48.796;9.806;2022-09-09T05:25:38;10.00;;;3.78;;
66183;SDS011;52989;48.796;9.806;2022-09-09T05:28:03;11.40;;;3.42;;
66183;SDS011;52989;48.796;9.806;2022-09-09T05:30:30;8.10;;;3.92;;
66183;SDS011;52989;48.796;9.806;2022-09-09T05:32:56;6.88;;;3.95;;
66183;SDS011;52989;48.796;9.806;2022-09-09T05:35:21;6.90;;;3.50;;
66183;SDS011;52989;48.796;9.806;2022-09-09T05:37:47;6.07;;;2.20;;
66183;SDS011;52989;48.796;9.806;2022-09-09T05:40:14;4.80;;;2.30;;
66183;SDS011;52989;48.796;9.806;2022-09-09T05:42:40;9.07;;;2.60;;
66183;SDS011;52989;48.796;9.806;2022-09-09T05:45:07;4.88;;;2.40;;
66183;SDS011;52989;48.796;9.806;2022-09-09T05:47:33;4.80;;;2.25;;
66183;SDS011;52989;48.796;9.806;2022-09-09T05:50:00;6.05;;;2.10;;
66183;SDS011;52989;48.796;9.806;2022-09-09T05:52:26;7.68;;;2.50;;
66183;SDS011;52989;48.796;9.806;2022-09-09T05:54:52;7.07;;;2.63;;
66183;SDS011;52989;48.796;9.806;2022-09-09T05:57:19;4.32;;;2.08;;
66183;SDS011;52989;48.796;9.806;2022-09-09T05:59:45;4.53;;;2.10;;
66183;SDS011;52989;48.796;9.806;2022-09-09T06:02:10;3.28;;;2.00;;
66183;SDS011;52989;48.796;9.806;2022-09-09T06:04:37;5.05;;;2.28;;
66183;SDS011;52989;48.796;9.806;2022-09-09T06:07:04;3.78;;;2.08;;
66183;SDS011;52989;48.796;9.806;2022-09-09T06:09:30;5.70;;;2.58;;
66183;SDS011;52989;48.796;9.806;2022-09-09T06:11:56;7.88;;;3.00;;
66183;SDS011;52989;48.796;9.806;2022-09-09T06:14:23;7.15;;;2.30;;
66183;SDS011;52989;48.796;9.806;2022-09-09T06:16:50;5.60;;;2.50;;
66183;SDS011;52989;48.796;9.806;2022-09-09T06:19:16;6.63;;;2.15;;
66183;SDS011;52989;48.796;9.806;2022-09-09T06:21:41;7.22;;;2.45;;
66183;SDS011;52989;48.796;9.806;2022-09-09T06:24:07;6.80;;;2.33;;
66183;SDS011;52989;48.796;9.806;2022-09-09T06:26:33;6.05;;;2.45;;
66183;SDS011;52989;48.796;9.806;2022-09-09T06:29:01;5.80;;;2.15;;
66183;SDS011;52989;48.796;9.806;2022-09-09T06:31:29;11.55;;;2.78;;
66183;SDS011;52989;48.796;9.806;2022-09-09T06:33:55;7.55;;;2.50;;
66183;SDS011;52989;48.796;9.806;2022-09-09T06:36:30;6.32;;;2.30;;
66183;SDS011;52989;48.796;9.806;2022-09-09T06:38:57;8.80;;;2.80;;
66183;SDS011;52989;48.796;9.806;2022-09-09T06:41:25;5.68;;;2.05;;
66183;SDS011;52989;48.796;9.806;2022-09-09T06:43:52;8.65;;;2.45;;
66183;SDS011;52989;48.796;9.806;2022-09-09T06:46:22;4.88;;;2.30;;
66183;SDS011;52989;48.796;9.806;2022-09-09T06:48:52;7.80;;;2.60;;
66183;SDS011;52989;48.796;9.806;2022-09-09T06:51:21;7.80;;;2.70;;
66183;SDS011;52989;48.796;9.806;2022-09-09T06:53:49;5.10;;;2.22;;
66183;SDS011;52989;48.796;9.806;2022-09-09T06:58:43;7.15;;;2.70;;
66183;SDS011;52989;48.796;9.806;2022-09-09T07:01:13;9.35;;;3.05;;
66183;SDS011;52989;48.796;9.806;2022-09-09T07:03:48;9.32;;;3.28;;
66183;SDS011;52989;48.796;9.806;2022-09-09T07:06:17;10.75;;;3.65;;
66183;SDS011;52989;48.796;9.806;2022-09-09T07:08:48;9.70;;;3.88;;
66183;SDS011;52989;48.796;9.806;2022-09-09T07:11:18;9.65;;;3.30;;
66183;SDS011;52989;48.796;9.806;2022-09-09T07:13:44;10.95;;;3.60;;
66183;SDS011;52989;48.796;9.806;2022-09-09T07:16:14;5.35;;;2.83;;
66183;SDS011;52989;48.796;9.806;2022-09-09T07:18:41;10.57;;;2.28;;
66183;SDS011;52989;48.796;9.806;2022-09-09T07:21:09;4.57;;;2.88;;
66183;SDS011;52989;48.796;9.806;2022-09-09T07:23:37;5.63;;;2.40;;
66183;SDS011;52989;48.796;9.806;2022-09-09T07:26:06;5.55;;;2.45;;
66183;SDS011;52989;48.796;9.806;2022-09-09T07:28:36;4.55;;;2.30;;
66183;SDS011;52989;48.796;9.806;2022-09-09T07:31:02;2.95;;;1.80;;
66183;SDS011;52989;48.796;9.806;2022-09-09T07:33:29;5.05;;;2.60;;
66183;SDS011;52989;48.796;9.806;2022-09-09T07:36:06;5.45;;;2.33;;
66183;SDS011;52989;48.796;9.806;2022-09-09T07:38:52;8.95;;;2.22;;
66183;SDS011;52989;48.796;9.806;2022-09-09T07:41:23;4.43;;;1.73;;
66183;SDS011;52989;48.796;9.806;2022-09-09T07:44:17;6.65;;;2.05;;
66183;SDS011;52989;48.796;9.806;2022-09-09T07:46:46;6.18;;;2.42;;
66183;SDS011;52989;48.796;9.806;2022-09-09T07:49:12;6.32;;;2.05;;
66183;SDS011;52989;48.796;9.806;2022-09-09T07:51:39;6.13;;;2.40;;
66183;SDS011;52989;48.796;9.806;2022-09-09T07:54:08;5.10;;;2.40;;
66183;SDS011;52989;48.796;9.806;2022-09-09T07:56:35;6.85;;;2.33;;
66183;SDS011;52989;48.796;9.806;2022-09-09T07:59:02;4.50;;;2.55;;
66183;SDS011;52989;48.796;9.806;2022-09-09T08:01:32;8.10;;;2.53;;
66183;SDS011;52989;48.796;9.806;2022-09-09T08:04:12;6.55;;;2.20;;
66183;SDS011;52989;48.796;9.806;2022-09-09T08:06:46;6.90;;;1.92;;
66183;SDS011;52989;48.796;9.806;2022-09-09T08:09:13;5.25;;;1.92;;
66183;SDS011;52989;48.796;9.806;2022-09-09T08:11:40;3.97;;;2.05;;
66183;SDS011;52989;48.796;9.806;2022-09-09T08:14:07;6.40;;;1.30;;
66183;SDS011;52989;48.796;9.806;2022-09-09T08:16:35;3.83;;;1.42;;
66183;SDS011;52989;48.796;9.806;2022-09-09T08:19:03;3.15;;;1.20;;
66183;SDS011;52989;48.796;9.806;2022-09-09T08:21:31;2.80;;;1.13;;
66183;SDS011;52989;48.796;9.806;2022-09-09T08:23:59;2.85;;;1.27;;
66183;SDS011;52989;48.796;9.806;2022-09-09T08:28:54;1.98;;;1.08;;
66183;SDS011;52989;48.796;9.806;2022-09-09T08:31:56;3.55;;;1.20;;
66183;SDS011;52989;48.796;9.806;2022-09-09T08:34:20;7.57;;;1.10;;
66183;SDS011;52989;48.796;9.806;2022-09-09T08:36:47;3.35;;;1.02;;
66183;SDS011;52989;48.796;9.806;2022-09-09T08:39:14;2.47;;;1.00;;
66183;SDS011;52989;48.796;9.806;2022-09-09T08:47:31;3.08;;;1.00;;
66183;SDS011;52989;48.796;9.806;2022-09-09T08:50:21;4.47;;;1.02;;
66183;SDS011;52989;48.796;9.806;2022-09-09T09:01:09;4.32;;;0.80;;
66183;SDS011;52989;48.796;9.806;2022-09-09T09:04:05;4.88;;;0.88;;
66183;SDS011;52989;48.796;9.806;2022-09-09T09:09:35;4.78;;;1.00;;
66183;SDS011;52989;48.796;9.806;2022-09-09T09:12:20;6.40;;;1.13;;
66183;SDS011;52989;48.796;9.806;2022-09-09T09:14:49;6.65;;;1.23;;
66183;SDS011;52989;48.796;9.806;2022-09-09T09:17:17;3.90;;;1.15;;
66183;SDS011;52989;48.796;9.806;2022-09-09T09:19:44;4.63;;;1.00;;
66183;SDS011;52989;48.796;9.806;2022-09-09T09:22:21;3.28;;;0.90;;
66183;SDS011;52989;48.796;9.806;2022-09-09T09:25:05;2.58;;;0.90;;
66183;SDS011;52989;48.796;9.806;2022-09-09T09:30:22;2.75;;;1.10;;
66183;SDS011;52989;48.796;9.806;2022-09-09T09:32:56;6.95;;;1.27;;
66183;SDS011;52989;48.796;9.806;2022-09-09T09:35:26;1.95;;;0.80;;
66183;SDS011;52989;48.796;9.806;2022-09-09T09:37:51;3.47;;;0.90;;
66183;SDS011;52989;48.796;9.806;2022-09-09T09:40:18;4.10;;;0.98;;
66183;SDS011;52989;48.796;9.806;2022-09-09T09:45:41;4.05;;;1.10;;
66183;SDS011;52989;48.796;9.806;2022-09-09T09:48:12;3.22;;;0.90;;
66183;SDS011;52989;48.796;9.806;2022-09-09T09:50:49;4.30;;;0.88;;
66183;SDS011;52989;48.796;9.806;2022-09-09T09:53:30;3.13;;;0.80;;
66183;SDS011;52989;48.796;9.806;2022-09-09T09:55:58;5.60;;;1.10;;
66183;SDS011;52989;48.796;9.806;2022-09-09T09:58:25;5.75;;;1.00;;
66183;SDS011;52989;48.796;9.806;2022-09-09T10:00:59;2.78;;;1.05;;
66183;SDS011;52989;48.796;9.806;2022-09-09T10:03:29;5.20;;;1.40;;
66183;SDS011;52989;48.796;9.806;2022-09-09T10:05:57;3.40;;;1.20;;
66183;SDS011;52989;48.796;9.806;2022-09-09T10:08:23;2.72;;;0.88;;
66183;SDS011;52989;48.796;9.806;2022-09-09T10:14:08;4.07;;;1.17;;
66183;SDS011;52989;48.796;9.806;2022-09-09T10:17:01;3.60;;;1.10;;
66183;SDS011;52989;48.796;9.806;2022-09-09T10:19:42;4.20;;;1.00;;
66183;SDS011;52989;48.796;9.806;2022-09-09T10:30:36;5.80;;;1.05;;
66183;SDS011;52989;48.796;9.806;2022-09-09T10:41:15;2.58;;;0.90;;
66183;SDS011;52989;48.796;9.806;2022-09-09T10:46:38;3.92;;;0.90;;
66183;SDS011;52989;48.796;9.806;2022-09-09T10:57:01;4.97;;;0.93;;
66183;SDS011;52989;48.796;9.806;2022-09-09T10:59:37;7.63;;;1.00;;
66183;SDS011;52989;48.796;9.806;2022-09-09T11:02:16;2.72;;;0.80;;
66183;SDS011;52989;48.796;9.806;2022-09-09T11:04:53;3.05;;;0.60;;
66183;SDS011;52989;48.796;9.806;2022-09-09T11:07:29;3.30;;;0.73;;
66183;SDS011;52989;48.796;9.806;2022-09-09T11:13:09;4.80;;;0.75;;
66183;SDS011;52989;48.796;9.806;2022-09-09T11:15:49;3.75;;;0.88;;
66183;SDS011;52989;48.796;9.806;2022-09-09T11:18:19;3.58;;;0.55;;
66183;SDS011;52989;48.796;9.806;2022-09-09T11:20:52;2.03;;;0.43;;
66183;SDS011;52989;48.796;9.806;2022-09-09T11:23:25;3.58;;;0.80;;
66183;SDS011;52989;48.796;9.806;2022-09-09T11:25:58;5.53;;;0.90;;
66183;SDS011;52989;48.796;9.806;2022-09-09T11:31:42;4.40;;;0.50;;
66183;SDS011;52989;48.796;9.806;2022-09-09T11:34:33;3.45;;;0.70;;
66183;SDS011;52989;48.796;9.806;2022-09-09T11:39:48;2.60;;;0.77;;
66183;SDS011;52989;48.796;9.806;2022-09-09T11:42:25;2.03;;;0.60;;
66183;SDS011;52989;48.796;9.806;2022-09-09T11:44:51;3.72;;;0.60;;
66183;SDS011;52989;48.796;9.806;2022-09-09T11:49:45;4.32;;;0.65;;
66183;SDS011;52989;48.796;9.806;2022-09-09T11:52:24;6.97;;;0.70;;
66183;SDS011;52989;48.796;9.806;2022-09-09T11:55:09;3.33;;;0.68;;
66183;SDS011;52989;48.796;9.806;2022-09-09T11:57:37;2.75;;;0.55;;
66183;SDS011;52989;48.796;9.806;2022-09-09T12:00:04;5.78;;;0.60;;
66183;SDS011;52989;48.796;9.806;2022-09-09T12:02:31;2.45;;;0.50;;
66183;SDS011;52989;48.796;9.806;2022-09-09T12:07:37;3.88;;;0.75;;
66183;SDS011;52989;48.796;9.806;2022-09-09T12:12:34;3.63;;;0.80;;
66183;SDS011;52989;48.796;9.806;2022-09-09T12:17:28;3.75;;;0.50;;
66183;SDS011;52989;48.796;9.806;2022-09-09T12:22:43;2.55;;;0.77;;
66183;SDS011;52989;48.796;9.806;2022-09-09T12:34:15;2.72;;;0.50;;
66183;SDS011;52989;48.796;9.806;2022-09-09T12:37:02;2.90;;;0.60;;
66183;SDS011;52989;48.796;9.806;2022-09-09T12:39:35;2.08;;;0.65;;
66183;SDS011;52989;48.796;9.806;2022-09-09T12:42:15;2.50;;;0.70;;
66183;SDS011;52989;48.796;9.806;2022-09-09T12:44:50;3.00;;;0.80;;
66183;SDS011;52989;48.796;9.806;2022-09-09T12:47:20;3.10;;;0.60;;
66183;SDS011;52989;48.796;9.806;2022-09-09T12:50:14;4.63;;;0.95;;
66183;SDS011;52989;48.796;9.806;2022-09-09T12:52:46;6.07;;;0.90;;
66183;SDS011;52989;48.796;9.806;2022-09-09T12:55:20;3.78;;;0.63;;
66183;SDS011;52989;48.796;9.806;2022-09-09T12:57:50;2.63;;;0.47;;
66183;SDS011;52989;48.796;9.806;2022-09-09T13:00:21;2.22;;;0.65;;
66183;SDS011;52989;48.796;9.806;2022-09-09T13:02:54;6.93;;;0.70;;
66183;SDS011;52989;48.796;9.806;2022-09-09T13:05:42;2.55;;;0.68;;
66183;SDS011;52989;48.796;9.806;2022-09-09T13:08:11;3.45;;;0.80;;
66183;SDS011;52989;48.796;9.806;2022-09-09T13:10:39;2.08;;;0.50;;
66183;SDS011;52989;48.796;9.806;2022-09-09T13:13:27;4.60;;;0.63;;
66183;SDS011;52989;48.796;9.806;2022-09-09T13:16:00;5.72;;;0.80;;
66183;SDS011;52989;48.796;9.806;2022-09-09T13:18:28;1.58;;;0.60;;
66183;SDS011;52989;48.796;9.806;2022-09-09T13:20:56;2.58;;;0.60;;
66183;SDS011;52989;48.796;9.806;2022-09-09T13:23:24;3.60;;;0.60;;
66183;SDS011;52989;48.796;9.806;2022-09-09T13:25:57;2.63;;;0.50;;
66183;SDS011;52989;48.796;9.806;2022-09-09T13:28:25;1.42;;;0.50;;
66183;SDS011;52989;48.796;9.806;2022-09-09T13:30:59;1.35;;;0.38;;
66183;SDS011;52989;48.796;9.806;2022-09-09T13:33:37;4.35;;;0.80;;
66183;SDS011;52989;48.796;9.806;2022-09-09T13:36:05;2.92;;;0.60;;
66183;SDS011;52989;48.796;9.806;2022-09-09T13:38:40;1.77;;;0.30;;
66183;SDS011;52989;48.796;9.806;2022-09-09T13:41:20;1.73;;;0.43;;
66183;SDS011;52989;48.796;9.806;2022-09-09T13:43:50;1.30;;;0.43;;
66183;SDS011;52989;48.796;9.806;2022-09-09T13:46:24;3.80;;;0.68;;
66183;SDS011;52989;48.796;9.806;2022-09-09T13:48:57;4.47;;;0.50;;
66183;SDS011;52989;48.796;9.806;2022-09-09T13:54:00;1.60;;;0.65;;
66183;SDS011;52989;48.796;9.806;2022-09-09T13:56:26;2.88;;;0.38;;
66183;SDS011;52989;48.796;9.806;2022-09-09T13:58:51;1.67;;;0.47;;
66183;SDS011;52989;48.796;9.806;2022-09-09T14:01:17;4.13;;;0.50;;
66183;SDS011;52989;48.796;9.806;2022-09-09T14:03:43;5.10;;;0.80;;
66183;SDS011;52989;48.796;9.806;2022-09-09T14:06:09;3.60;;;0.60;;
66183;SDS011;52989;48.796;9.806;2022-09-09T14:08:35;2.47;;;0.60;;
66183;SDS011;52989;48.796;9.806;2022-09-09T14:11:02;5.22;;;0.40;;
66183;SDS011;52989;48.796;9.806;2022-09-09T14:13:28;2.70;;;0.60;;
66183;SDS011;52989;48.796;9.806;2022-09-09T14:15:54;2.55;;;0.50;;
66183;SDS011;52989;48.796;9.806;2022-09-09T14:18:20;2.85;;;0.47;;
66183;SDS011;52989;48.796;9.806;2022-09-09T14:20:47;3.70;;;0.50;;
66183;SDS011;52989;48.796;9.806;2022-09-09T14:23:13;4.53;;;0.90;;
66183;SDS011;52989;48.796;9.806;2022-09-09T14:25:39;2.10;;;0.50;;
66183;SDS011;52989;48.796;9.806;2022-09-09T14:28:07;2.53;;;0.55;;
66183;SDS011;52989;48.796;9.806;2022-09-09T14:30:37;1.95;;;0.40;;
66183;SDS011;52989;48.796;9.806;2022-09-09T14:33:04;3.15;;;0.60;;
66183;SDS011;52989;48.796;9.806;2022-09-09T14:35:30;2.85;;;0.60;;
66183;SDS011;52989;48.796;9.806;2022-09-09T14:37:58;2.25;;;0.50;;
66183;SDS011;52989;48.796;9.806;2022-09-09T14:40:23;2.78;;;0.68;;
66183;SDS011;52989;48.796;9.806;2022-09-09T14:42:49;4.47;;;0.60;;
66183;SDS011;52989;48.796;9.806;2022-09-09T14:45:15;1.90;;;0.40;;
66183;SDS011;52989;48.796;9.806;2022-09-09T14:47:40;1.98;;;0.40;;
66183;SDS011;52989;48.796;9.806;2022-09-09T14:50:06;1.75;;;0.63;;
66183;SDS011;52989;48.796;9.806;2022-09-09T14:52:34;3.95;;;0.90;;
66183;SDS011;52989;48.796;9.806;2022-09-09T14:55:00;2.75;;;0.60;;
66183;SDS011;52989;48.796;9.806;2022-09-09T14:57:25;3.28;;;0.73;;
66183;SDS011;52989;48.796;9.806;2022-09-09T14:59:51;1.55;;;0.60;;
66183;SDS011;52989;48.796;9.806;2022-09-09T15:02:17;2.35;;;0.60;;
66183;SDS011;52989;48.796;9.806;2022-09-09T15:04:42;2.80;;;0.40;;
66183;SDS011;52989;48.796;9.806;2022-09-09T15:07:09;1.92;;;0.30;;
66183;SDS011;52989;48.796;9.806;2022-09-09T15:09:35;3.13;;;0.47;;
66183;SDS011;52989;48.796;9.806;2022-09-09T15:12:02;2.20;;;0.55;;
66183;SDS011;52989;48.796;9.806;2022-09-09T15:14:27;3.83;;;0.47;;
66183;SDS011;52989;48.796;9.806;2022-09-09T15:16:53;1.52;;;0.35;;
66183;SDS011;52989;48.796;9.806;2022-09-09T15:19:19;3.33;;;0.50;;
66183;SDS011;52989;48.796;9.806;2022-09-09T15:21:45;2.15;;;0.47;;
66183;SDS011;52989;48.796;9.806;2022-09-09T15:24:10;1.40;;;0.40;;
66183;SDS011;52989;48.796;9.806;2022-09-09T15:26:37;1.67;;;0.40;;
66183;SDS011;52989;48.796;9.806;2022-09-09T15:29:03;2.20;;;0.40;;
66183;SDS011;52989;48.796;9.806;2022-09-09T15:31:29;2.75;;;0.30;;
66183;SDS011;52989;48.796;9.806;2022-09-09T15:33:57;1.95;;;0.40;;
66183;SDS011;52989;48.796;9.806;2022-09-09T15:36:30;2.97;;;0.50;;
66183;SDS011;52989;48.796;9.806;2022-09-09T15:38:58;2.13;;;0.38;;
66183;SDS011;52989;48.796;9.806;2022-09-09T15:41:25;2.20;;;0.60;;
66183;SDS011;52989;48.796;9.806;2022-09-09T15:43:52;1.98;;;0.30;;
66183;SDS011;52989;48.796;9.806;2022-09-09T15:46:37;1.73;;;0.30;;
66183;SDS011;52989;48.796;9.806;2022-09-09T15:49:08;1.42;;;0.45;;
66183;SDS011;52989;48.796;9.806;2022-09-09T15:51:39;4.38;;;0.50;;
66183;SDS011;52989;48.796;9.806;2022-09-09T15:54:07;1.27;;;0.40;;
66183;SDS011;52989;48.796;9.806;2022-09-09T15:56:33;2.05;;;0.50;;
66183;SDS011;52989;48.796;9.806;2022-09-09T15:58:59;2.35;;;0.65;;
66183;SDS011;52989;48.796;9.806;2022-09-09T16:01:27;1.08;;;0.43;;
66183;SDS011;52989;48.796;9.806;2022-09-09T16:03:52;1.90;;;0.50;;
66183;SDS011;52989;48.796;9.806;2022-09-09T16:06:19;1.77;;;0.32;;
66183;SDS011;52989;48.796;9.806;2022-09-09T16:08:47;2.00;;;0.52;;
66183;SDS011;52989;48.796;9.806;2022-09-09T16:11:22;1.10;;;0.40;;
66183;SDS011;52989;48.796;9.806;2022-09-09T16:13:51;4.70;;;0.52;;
66183;SDS011;52989;48.796;9.806;2022-09-09T16:16:18;2.95;;;0.70;;
66183;SDS011;52989;48.796;9.806;2022-09-09T16:18:47;1.38;;;0.40;;
66183;SDS011;52989;48.796;9.806;2022-09-09T16:21:19;2.42;;;0.40;;
66183;SDS011;52989;48.796;9.806;2022-09-09T16:23:47;2.47;;;0.43;;
66183;SDS011;52989;48.796;9.806;2022-09-09T16:26:15;1.45;;;0.40;;
66183;SDS011;52989;48.796;9.806;2022-09-09T16:28:42;1.63;;;0.50;;
66183;SDS011;52989;48.796;9.806;2022-09-09T16:31:09;2.25;;;0.40;;
66183;SDS011;52989;48.796;9.806;2022-09-09T16:33:38;3.03;;;0.50;;
66183;SDS011;52989;48.796;9.806;2022-09-09T16:36:05;4.80;;;0.57;;
66183;SDS011;52989;48.796;9.806;2022-09-09T16:38:32;2.70;;;0.40;;
66183;SDS011;52989;48.796;9.806;2022-09-09T16:40:58;3.28;;;0.80;;
66183;SDS011;52989;48.796;9.806;2022-09-09T16:43:24;2.25;;;0.63;;
66183;SDS011;52989;48.796;9.806;2022-09-09T16:45:50;1.13;;;0.43;;
66183;SDS011;52989;48.796;9.806;2022-09-09T16:48:15;1.70;;;0.32;;
66183;SDS011;52989;48.796;9.806;2022-09-09T16:50:41;2.20;;;0.45;;
66183;SDS011;52989;48.796;9.806;2022-09-09T16:53:06;1.48;;;0.40;;
66183;SDS011;52989;48.796;9.806;2022-09-09T16:55:37;1.92;;;0.50;;
66183;SDS011;52989;48.796;9.806;2022-09-09T16:58:07;3.00;;;0.60;;
66183;SDS011;52989;48.796;9.806;2022-09-09T17:00:35;7.47;;;0.50;;
66183;SDS011;52989;48.796;9.806;2022-09-09T17:03:01;3.20;;;0.40;;
66183;SDS011;52989;48.796;9.806;2022-09-09T17:05:27;0.75;;;0.38;;
66183;SDS011;52989;48.796;9.806;2022-09-09T17:07:54;4.55;;;0.80;;
66183;SDS011;52989;48.796;9.806;2022-09-09T17:10:23;2.85;;;0.68;;
66183;SDS011;52989;48.796;9.806;2022-09-09T17:12:50;1.92;;;0.50;;